Time;durP1;ratioP1;P1;durP2;ratioP2;P2;SDS_P1;SDS_P2;PMS_P1;PMS_P2;Temp;Humidity;BMP_temperature;BMP_pressure;BME280_temperature;BME280_humidity;BME280_pressure;Samples;Min_cycle;Max_cycle;Signal;HPM_P1;HPM_P2
2023/08/28 00:01:23;;;;;;;6.40;1.90;;;13.60;92.90;;;;;;5066594;28;20017;-49
2023/08/28 00:03:50;;;;;;;5.13;1.70;;;13.50;92.90;;;;;;5070443;28;20031;-46
2023/08/28 00:06:19;;;;;;;5.90;1.60;;;13.60;93.10;;;;;;5037190;28;21118;-48
2023/08/28 00:08:44;;;;;;;3.72;1.50;;;13.60;93.10;;;;;;5069743;28;20032;-48
2023/08/28 00:11:11;;;;;;;3.50;1.50;;;13.60;93.20;;;;;;5038937;28;20124;-45
2023/08/28 00:13:39;;;;;;;4.05;1.50;;;13.60;93.00;;;;;;5039869;28;20028;-46
2023/08/28 00:16:06;;;;;;;4.85;1.60;;;13.60;93.20;;;;;;5060411;28;20024;-46
2023/08/28 00:18:32;;;;;;;7.28;2.17;;;13.70;93.10;;;;;;5070319;28;20090;-48
2023/08/28 00:20:58;;;;;;;3.92;1.63;;;13.70;93.20;;;;;;5052861;28;20021;-48
2023/08/28 00:23:28;;;;;;;3.50;1.83;;;13.70;93.30;;;;;;5044591;28;20037;-47
2023/08/28 00:25:56;;;;;;;4.53;1.38;;;13.70;93.30;;;;;;5040197;28;20021;-45
2023/08/28 00:28:21;;;;;;;2.58;1.10;;;13.70;93.40;;;;;;5049030;28;20067;-47
2023/08/28 00:30:51;;;;;;;6.05;1.92;;;13.80;93.50;;;;;;5056390;28;20413;-45
2023/08/28 00:33:16;;;;;;;3.97;1.10;;;13.80;93.40;;;;;;5052543;28;20036;-46
2023/08/28 00:35:44;;;;;;;3.70;1.40;;;13.80;93.40;;;;;;5040847;28;20052;-46
2023/08/28 00:38:12;;;;;;;3.33;1.23;;;13.80;93.50;;;;;;5069906;28;20056;-45
2023/08/28 00:40:43;;;;;;;5.20;1.10;;;13.90;93.50;;;;;;5034237;28;20088;-47
2023/08/28 00:43:12;;;;;;;3.60;1.85;;;13.90;93.40;;;;;;5025508;28;20083;-46
2023/08/28 00:45:42;;;;;;;6.03;1.47;;;13.90;93.40;;;;;;5066829;28;20146;-49
2023/08/28 00:48:17;;;;;;;6.32;1.33;;;13.90;93.30;;;;;;5025767;28;20029;-46
2023/08/28 00:50:45;;;;;;;6.78;1.52;;;13.90;93.30;;;;;;5037460;28;20098;-46
2023/08/28 00:53:13;;;;;;;3.42;1.13;;;13.90;93.30;;;;;;5050062;28;20067;-47
2023/08/28 00:55:40;;;;;;;4.43;1.33;;;13.90;93.20;;;;;;5025334;28;20584;-47
2023/08/28 00:58:07;;;;;;;3.15;1.10;;;13.90;93.30;;;;;;5023249;28;20028;-49
2023/08/28 01:00:34;;;;;;;3.38;1.20;;;13.90;93.30;;;;;;5065513;28;20067;-47
2023/08/28 01:02:59;;;;;;;6.05;1.40;;;13.90;93.20;;;;;;5050169;28;20024;-47
2023/08/28 01:06:03;;;;;;;4.60;1.20;;;13.90;93.20;;;;;;5056800;28;20028;-46
2023/08/28 01:08:50;;;;;;;6.65;1.50;;;13.90;93.20;;;;;;5065861;28;20458;-49
2023/08/28 01:11:44;;;;;;;2.40;0.93;;;13.90;93.20;;;;;;5050284;28;20036;-48
2023/08/28 01:14:27;;;;;;;4.78;1.30;;;13.90;93.20;;;;;;5030879;28;20044;-44
2023/08/28 01:16:59;;;;;;;1.77;0.85;;;14.00;93.20;;;;;;5049036;28;20028;-46
2023/08/28 01:19:43;;;;;;;5.05;1.23;;;13.90;93.10;;;;;;5024161;28;20365;-45
2023/08/28 01:22:30;;;;;;;3.63;1.10;;;13.90;92.90;;;;;;5049491;28;20036;-45
2023/08/28 01:25:26;;;;;;;3.95;1.50;;;13.90;92.90;;;;;;5017389;28;20013;-49
2023/08/28 01:27:52;;;;;;;2.55;1.10;;;13.90;93.00;;;;;;5033492;28;20022;-46
2023/08/28 01:30:21;;;;;;;4.57;1.40;;;13.90;93.00;;;;;;5053842;28;20061;-46
2023/08/28 01:32:48;;;;;;;6.38;1.52;;;13.90;93.10;;;;;;5033925;28;20105;-45
2023/08/28 01:35:20;;;;;;;3.97;1.70;;;13.90;93.10;;;;;;5044076;28;20038;-50
2023/08/28 01:38:05;;;;;;;4.72;1.85;;;13.90;93.10;;;;;;5073294;28;20113;-49
2023/08/28 01:41:06;;;;;;;5.90;1.65;;;13.90;93.10;;;;;;5069508;28;20063;-55
2023/08/28 01:43:46;;;;;;;4.57;1.20;;;13.90;93.10;;;;;;5046508;28;20120;-50
2023/08/28 01:46:14;;;;;;;;;;;13.80;93.00;;;;;;5040049;28;20021;-50
2023/08/28 01:48:53;;;;;;;3.15;1.35;;;13.70;93.00;;;;;;5050937;28;20008;-47
2023/08/28 01:51:22;;;;;;;4.95;1.33;;;13.60;93.00;;;;;;5047520;28;20067;-50
2023/08/28 01:53:51;;;;;;;6.78;1.15;;;13.70;93.20;;;;;;5033775;28;20037;-51
2023/08/28 01:56:24;;;;;;;4.53;1.42;;;13.70;93.20;;;;;;5031118;28;20068;-47
2023/08/28 01:59:02;;;;;;;5.50;1.30;;;13.70;93.10;;;;;;5057099;28;20049;-51
2023/08/28 02:01:29;;;;;;;6.55;1.90;;;13.70;93.30;;;;;;5046388;28;20033;-46
2023/08/28 02:03:57;;;;;;;3.92;1.30;;;13.70;93.40;;;;;;5044663;28;20032;-49
2023/08/28 02:06:26;;;;;;;3.45;1.42;;;13.70;93.40;;;;;;5058076;28;20028;-52
2023/08/28 02:08:54;;;;;;;3.97;1.60;;;13.70;93.50;;;;;;5045855;28;20049;-49
2023/08/28 02:11:21;;;;;;;7.75;1.65;;;13.70;93.50;;;;;;5052994;28;20434;-48
2023/08/28 02:13:46;;;;;;;3.58;1.55;;;13.70;93.50;;;;;;5039430;28;20385;-53
2023/08/28 02:16:13;;;;;;;4.32;1.35;;;13.70;93.60;;;;;;5060878;28;20045;-53
2023/08/28 02:18:41;;;;;;;4.10;1.50;;;13.70;93.70;;;;;;5015903;28;20064;-53
2023/08/28 02:21:07;;;;;;;4.47;1.55;;;13.70;93.70;;;;;;5051401;28;20031;-52
2023/08/28 02:23:37;;;;;;;5.82;1.65;;;13.80;93.70;;;;;;5031845;28;20091;-55
2023/08/28 02:26:05;;;;;;;3.15;1.15;;;13.80;93.70;;;;;;5054551;28;20436;-48
2023/08/28 02:28:33;;;;;;;2.38;1.17;;;13.70;93.60;;;;;;5048395;28;20033;-47
2023/08/28 02:31:00;;;;;;;3.95;1.45;;;13.70;93.50;;;;;;5054201;28;20025;-52
2023/08/28 02:33:27;;;;;;;4.47;1.80;;;13.70;93.60;;;;;;5060448;28;20095;-47
2023/08/28 02:35:52;;;;;;;3.80;1.60;;;13.60;93.50;;;;;;5057747;28;20501;-49
2023/08/28 02:38:21;;;;;;;5.38;2.55;;;13.60;93.60;;;;;;5051259;28;20079;-48
2023/08/28 02:40:49;;;;;;;3.85;2.05;;;13.60;93.60;;;;;;5051544;28;20075;-50
2023/08/28 02:43:19;;;;;;;3.80;2.15;;;13.50;93.60;;;;;;5047040;28;20133;-47
2023/08/28 02:45:45;;;;;;;4.82;2.75;;;13.50;93.60;;;;;;5050783;28;20128;-47
2023/08/28 02:48:15;;;;;;;6.38;2.53;;;13.50;93.60;;;;;;5054600;28;20443;-47
2023/08/28 02:50:42;;;;;;;5.32;1.73;;;13.50;93.60;;;;;;5067425;28;20032;-49
2023/08/28 02:53:09;;;;;;;4.82;2.75;;;13.40;93.70;;;;;;5072214;28;20497;-50
2023/08/28 02:55:42;;;;;;;4.32;2.63;;;13.40;93.60;;;;;;5041416;28;20033;-49
2023/08/28 02:58:10;;;;;;;5.30;2.60;;;13.40;93.60;;;;;;5038803;28;20134;-47
2023/08/28 03:00:37;;;;;;;6.43;2.92;;;13.40;93.60;;;;;;5027323;28;20115;-49
2023/08/28 03:03:04;;;;;;;3.78;2.83;;;13.40;93.70;;;;;;5027817;28;20465;-49
2023/08/28 03:05:32;;;;;;;7.10;3.20;;;13.30;93.70;;;;;;5044170;28;20048;-48
2023/08/28 03:08:00;;;;;;;4.88;3.20;;;13.30;93.90;;;;;;5051751;28;20122;-48
2023/08/28 03:10:30;;;;;;;8.13;3.58;;;13.30;93.80;;;;;;5060068;28;20097;-46
2023/08/28 03:12:57;;;;;;;;;;;13.30;93.80;;;;;;5038673;28;20399;-48
2023/08/28 03:15:26;;;;;;;6.53;3.33;;;13.30;93.90;;;;;;5065573;28;19975;-49
2023/08/28 03:17:52;;;;;;;6.90;3.08;;;13.30;93.80;;;;;;5070031;28;20043;-46
2023/08/28 03:20:20;;;;;;;11.43;4.13;;;13.20;93.70;;;;;;5040591;28;20453;-47
2023/08/28 03:22:47;;;;;;;9.55;3.85;;;13.20;93.70;;;;;;5047219;28;20434;-50
2023/08/28 03:25:14;;;;;;;5.75;3.22;;;13.20;93.80;;;;;;5071249;28;20028;-50
2023/08/28 03:27:39;;;;;;;6.55;3.47;;;13.20;93.70;;;;;;5065839;28;20083;-49
2023/08/28 03:30:08;;;;;;;4.50;3.13;;;13.10;93.70;;;;;;5063350;28;20469;-50
2023/08/28 03:32:44;;;;;;;4.15;3.22;;;13.10;93.70;;;;;;5068770;28;20450;-51
2023/08/28 03:35:12;;;;;;;5.65;3.03;;;13.10;93.70;;;;;;5028199;28;20370;-46
2023/08/28 03:37:39;;;;;;;7.47;3.30;;;13.10;93.70;;;;;;5037157;28;20045;-48
2023/08/28 03:40:09;;;;;;;7.72;3.15;;;13.10;93.60;;;;;;5023208;28;20017;-48
2023/08/28 03:42:35;;;;;;;5.10;2.75;;;13.00;93.50;;;;;;5020373;28;20037;-52
2023/08/28 03:45:00;;;;;;;4.13;3.22;;;13.00;93.60;;;;;;5057504;28;20568;-51
2023/08/28 03:47:34;;;;;;;11.02;3.90;;;13.00;93.60;;;;;;5049005;28;20048;-50
2023/08/28 03:50:00;;;;;;;5.10;3.58;;;13.00;93.70;;;;;;5044613;28;20035;-50
2023/08/28 03:52:30;;;;;;;5.53;3.25;;;13.00;93.70;;;;;;5070975;28;20059;-50
2023/08/28 03:54:57;;;;;;;5.53;2.75;;;12.90;93.60;;;;;;5057464;28;20078;-51
2023/08/28 03:57:25;;;;;;;6.07;2.92;;;12.90;93.70;;;;;;5048385;28;20501;-48
2023/08/28 03:59:53;;;;;;;5.32;3.10;;;12.90;93.70;;;;;;5048326;28;20353;-47
2023/08/28 04:02:20;;;;;;;5.00;3.00;;;12.90;93.80;;;;;;5063077;28;20099;-51
2023/08/28 04:04:50;;;;;;;7.53;3.70;;;12.90;93.90;;;;;;5051799;28;20100;-47
2023/08/28 04:07:40;;;;;;;5.40;3.30;;;12.90;93.80;;;;;;5062720;28;20060;-48
2023/08/28 04:10:21;;;;;;;6.00;3.35;;;13.00;93.90;;;;;;5058152;28;20032;-46
2023/08/28 04:12:48;;;;;;;4.63;3.20;;;12.90;93.80;;;;;;5060832;28;20021;-50
2023/08/28 04:15:15;;;;;;;5.97;3.60;;;12.90;93.80;;;;;;5062965;28;20405;-47
2023/08/28 04:17:43;;;;;;;5.63;3.05;;;12.90;93.80;;;;;;5046573;28;20029;-49
2023/08/28 04:20:14;;;;;;;4.75;3.22;;;12.90;93.80;;;;;;5013382;28;20036;-47
2023/08/28 04:22:45;;;;;;;5.93;3.20;;;12.90;93.80;;;;;;5031410;28;20480;-47
2023/08/28 04:25:12;;;;;;;6.28;3.80;;;12.90;93.90;;;;;;5053233;28;20044;-48
2023/08/28 04:27:39;;;;;;;5.20;3.20;;;12.90;93.90;;;;;;5057871;28;20018;-50
2023/08/28 04:30:07;;;;;;;5.00;4.00;;;12.90;94.00;;;;;;5068335;28;20434;-51
2023/08/28 04:32:35;;;;;;;5.68;4.05;;;12.90;94.00;;;;;;5055635;28;20061;-51
2023/08/28 04:35:01;;;;;;;5.93;3.90;;;13.00;94.20;;;;;;5061927;28;20028;-46
2023/08/28 04:37:27;;;;;;;6.88;3.60;;;13.00;94.20;;;;;;5054957;28;20098;-49
2023/08/28 04:39:54;;;;;;;6.80;3.85;;;13.00;94.20;;;;;;5032991;28;20029;-50
2023/08/28 04:42:21;;;;;;;5.80;3.65;;;13.10;94.30;;;;;;5050720;28;20092;-49
2023/08/28 04:44:48;;;;;;;7.03;4.18;;;13.10;94.30;;;;;;5039569;28;20029;-53
2023/08/28 04:47:16;;;;;;;6.03;4.30;;;13.10;94.50;;;;;;5055152;28;20039;-50
2023/08/28 04:49:44;;;;;;;5.75;3.70;;;13.20;94.50;;;;;;5043330;28;20370;-52
2023/08/28 04:52:12;;;;;;;5.28;4.03;;;13.20;94.50;;;;;;5067083;28;20462;-48
2023/08/28 04:54:39;;;;;;;5.60;3.83;;;13.20;94.50;;;;;;5048414;28;20841;-50
2023/08/28 04:57:05;;;;;;;5.28;3.53;;;13.30;94.50;;;;;;5050607;28;20060;-49
2023/08/28 04:59:35;;;;;;;5.80;3.75;;;13.30;94.50;;;;;;5061253;28;20072;-51
2023/08/28 05:02:03;;;;;;;5.97;3.45;;;13.30;94.40;;;;;;5060002;28;20085;-53
2023/08/28 05:04:31;;;;;;;6.03;3.05;;;13.30;94.40;;;;;;5044628;28;20033;-51
2023/08/28 05:06:58;;;;;;;7.18;2.88;;;13.30;94.40;;;;;;5040304;28;20060;-50
2023/08/28 05:09:26;;;;;;;5.20;3.63;;;13.30;94.40;;;;;;5050818;28;20033;-47
2023/08/28 05:11:52;;;;;;;5.38;3.20;;;13.30;94.30;;;;;;5032510;28;20505;-46
2023/08/28 05:14:19;;;;;;;7.00;4.03;;;13.30;94.30;;;;;;5055549;28;20023;-49
2023/08/28 05:16:46;;;;;;;4.60;2.97;;;13.30;94.30;;;;;;5055507;28;20514;-46
2023/08/28 05:19:15;;;;;;;5.50;3.78;;;13.30;94.20;;;;;;5073845;28;20032;-48
2023/08/28 05:21:43;;;;;;;6.65;3.40;;;13.30;94.20;;;;;;5052755;28;20033;-47
2023/08/28 05:24:09;;;;;;;5.57;3.05;;;13.30;94.10;;;;;;5050062;28;20426;-47
2023/08/28 05:26:38;;;;;;;5.63;3.35;;;13.20;94.10;;;;;;5052831;28;20025;-47
2023/08/28 05:29:05;;;;;;;4.80;2.95;;;13.20;94.10;;;;;;5060981;28;20120;-53
2023/08/28 05:31:31;;;;;;;4.35;2.83;;;13.20;94.00;;;;;;5052860;28;20391;-48
2023/08/28 05:34:02;;;;;;;5.25;3.50;;;13.20;94.20;;;;;;5040953;28;20036;-47
2023/08/28 05:36:28;;;;;;;5.10;3.22;;;13.20;94.10;;;;;;5045385;28;20442;-47
2023/08/28 05:38:55;;;;;;;7.82;3.30;;;13.20;94.00;;;;;;5060464;28;20056;-48
2023/08/28 05:41:23;;;;;;;4.95;3.70;;;13.20;94.10;;;;;;5044699;28;20029;-46
2023/08/28 05:43:51;;;;;;;6.00;3.75;;;13.20;94.10;;;;;;5047319;28;20124;-46
2023/08/28 05:46:17;;;;;;;7.60;3.58;;;13.30;94.10;;;;;;5050432;28;20619;-46
2023/08/28 05:48:42;;;;;;;5.38;3.20;;;13.30;94.10;;;;;;5052568;28;20033;-49
2023/08/28 05:51:09;;;;;;;8.07;4.03;;;13.30;94.20;;;;;;5051529;28;20068;-49
2023/08/28 05:53:39;;;;;;;6.05;3.75;;;13.40;94.20;;;;;;5050620;28;20032;-50
2023/08/28 05:56:05;;;;;;;5.97;3.75;;;13.50;94.30;;;;;;5063472;28;20025;-49
2023/08/28 05:58:35;;;;;;;5.13;3.60;;;13.60;94.50;;;;;;5073213;28;20582;-49
2023/08/28 06:01:06;;;;;;;6.30;3.50;;;13.80;94.50;;;;;;5049122;28;20528;-50
2023/08/28 06:03:33;;;;;;;6.22;4.45;;;13.90;94.50;;;;;;5047250;28;20033;-53
2023/08/28 06:06:00;;;;;;;5.70;3.60;;;13.90;94.30;;;;;;5046983;28;20180;-52
2023/08/28 06:08:27;;;;;;;5.28;4.00;;;14.00;94.30;;;;;;5051780;28;20099;-52
2023/08/28 06:10:53;;;;;;;5.50;4.10;;;14.00;94.30;;;;;;5043301;28;20119;-49
2023/08/28 06:13:21;;;;;;;5.88;3.65;;;14.00;94.30;;;;;;5049275;28;20181;-50
2023/08/28 06:15:51;;;;;;;8.18;4.45;;;13.90;94.20;;;;;;5044283;28;20103;-49
2023/08/28 06:18:23;;;;;;;6.95;4.88;;;14.00;94.30;;;;;;5061790;28;20102;-50
2023/08/28 06:20:50;;;;;;;7.65;4.47;;;14.10;94.30;;;;;;5051584;28;20118;-48
2023/08/28 06:23:18;;;;;;;6.75;4.35;;;14.20;94.40;;;;;;5057513;28;20032;-46
2023/08/28 06:25:49;;;;;;;7.88;3.63;;;14.30;94.40;;;;;;5065730;28;20029;-47
2023/08/28 06:28:15;;;;;;;5.32;3.53;;;14.30;94.40;;;;;;5058464;28;20025;-50
2023/08/28 06:30:45;;;;;;;4.78;2.90;;;14.20;94.30;;;;;;5048473;28;20069;-49
2023/08/28 06:33:12;;;;;;;9.80;4.15;;;14.20;94.40;;;;;;5027509;28;20115;-47
2023/08/28 06:35:45;;;;;;;9.75;3.72;;;14.20;94.40;;;;;;5046997;28;20095;-48
2023/08/28 06:38:14;;;;;;;5.95;3.40;;;14.20;94.40;;;;;;5046454;28;20692;-47
2023/08/28 06:40:40;;;;;;;4.80;3.15;;;14.20;94.40;;;;;;5026721;28;20140;-48
2023/08/28 06:43:08;;;;;;;4.28;3.13;;;14.20;94.50;;;;;;5044008;28;20500;-45
2023/08/28 06:45:37;;;;;;;4.35;3.10;;;14.30;94.40;;;;;;5046739;28;20397;-49
2023/08/28 06:48:04;;;;;;;6.85;3.65;;;14.30;94.50;;;;;;5060141;28;20064;-46
2023/08/28 06:50:33;;;;;;;5.75;2.90;;;14.40;94.40;;;;;;5044766;28;20033;-48
2023/08/28 06:53:01;;;;;;;5.18;3.22;;;14.40;94.50;;;;;;5024913;28;20039;-46
2023/08/28 06:55:29;;;;;;;6.15;3.42;;;14.50;94.50;;;;;;5050753;28;20060;-50
2023/08/28 06:57:55;;;;;;;7.45;3.03;;;14.60;94.30;;;;;;5033176;28;20367;-49
2023/08/28 07:00:21;;;;;;;4.82;3.25;;;14.60;94.20;;;;;;5034507;28;20037;-46
2023/08/28 07:02:55;;;;;;;5.68;2.72;;;14.60;94.10;;;;;;5034760;28;20041;-48
2023/08/28 07:05:22;;;;;;;5.13;3.00;;;14.60;94.40;;;;;;5033250;28;20346;-50
2023/08/28 07:07:48;;;;;;;4.03;2.75;;;14.70;94.20;;;;;;5050297;28;20068;-50
2023/08/28 07:10:20;;;;;;;4.93;2.50;;;14.80;94.30;;;;;;5038309;28;20026;-46
2023/08/28 07:12:47;;;;;;;4.22;2.25;;;14.90;94.40;;;;;;5045156;28;20041;-52
2023/08/28 07:15:38;;;;;;;4.55;2.13;;;14.90;94.00;;;;;;5041656;28;20112;-47
2023/08/28 07:18:06;;;;;;;4.80;2.00;;;15.00;94.00;;;;;;5048293;28;20091;-49
2023/08/28 07:20:38;;;;;;;3.72;1.67;;;15.10;93.90;;;;;;5037172;28;20029;-47
2023/08/28 07:23:09;;;;;;;4.75;2.17;;;15.10;93.70;;;;;;5050133;28;20025;-49
2023/08/28 07:25:45;;;;;;;4.30;2.40;;;15.10;93.40;;;;;;5047979;28;20032;-46
2023/08/28 07:28:15;;;;;;;4.05;2.28;;;15.20;93.30;;;;;;5029263;28;20291;-46
2023/08/28 07:30:46;;;;;;;;;;;15.30;93.40;;;;;;5040814;28;20053;-50
2023/08/28 07:33:12;;;;;;;4.45;1.77;;;15.30;93.30;;;;;;5043375;28;19909;-49
2023/08/28 07:35:44;;;;;;;3.85;1.77;;;15.50;93.30;;;;;;5027342;28;20037;-45
2023/08/28 07:38:13;;;;;;;3.75;1.52;;;15.60;92.90;;;;;;5044766;28;20167;-46
2023/08/28 07:40:39;;;;;;;5.20;1.50;;;15.80;92.70;;;;;;5047550;28;20029;-49
2023/08/28 07:43:07;;;;;;;3.50;1.35;;;15.90;92.90;;;;;;5033450;28;20312;-49
2023/08/28 07:45:35;;;;;;;5.35;2.35;;;16.20;92.60;;;;;;5022512;28;20027;-49
2023/08/28 07:48:03;;;;;;;4.20;1.40;;;16.40;92.00;;;;;;5046387;28;20450;-48
2023/08/28 07:50:30;;;;;;;3.90;1.35;;;16.70;91.80;;;;;;5026931;28;20592;-48
2023/08/28 07:53:00;;;;;;;4.80;1.00;;;16.90;91.20;;;;;;5034684;28;20108;-51
2023/08/28 07:55:27;;;;;;;4.70;1.25;;;17.40;90.90;;;;;;5024442;28;20161;-49
2023/08/28 07:57:57;;;;;;;6.35;1.88;;;17.80;90.50;;;;;;5048126;28;20037;-49
2023/08/28 08:00:24;;;;;;;4.15;1.20;;;18.20;90.00;;;;;;5040897;28;20039;-52
2023/08/28 08:02:53;;;;;;;2.80;0.85;;;18.70;87.60;;;;;;5046619;28;20059;-51
2023/08/28 08:05:25;;;;;;;2.45;0.65;;;18.70;84.60;;;;;;5029396;28;20087;-50
2023/08/28 08:07:53;;;;;;;2.10;0.73;;;18.60;84.50;;;;;;5051965;28;20041;-53
2023/08/28 08:10:19;;;;;;;2.42;0.65;;;18.50;84.30;;;;;;5042524;28;20025;-54
2023/08/28 08:12:45;;;;;;;2.60;1.23;;;18.50;84.40;;;;;;5053142;28;20044;-53
2023/08/28 08:15:12;;;;;;;1.65;0.52;;;18.60;84.70;;;;;;5033250;28;20029;-54
2023/08/28 08:17:39;;;;;;;2.45;0.80;;;18.60;83.70;;;;;;5046160;28;20704;-57
2023/08/28 08:20:09;;;;;;;4.32;0.73;;;18.60;83.50;;;;;;5040484;28;20108;-55
2023/08/28 08:22:37;;;;;;;2.10;0.70;;;18.80;83.40;;;;;;5035399;28;20025;-53
2023/08/28 08:25:10;;;;;;;4.13;0.90;;;18.80;82.60;;;;;;5027886;28;20033;-55
2023/08/28 08:27:38;;;;;;;2.10;0.60;;;18.70;83.10;;;;;;5044253;28;20029;-55
2023/08/28 08:30:07;;;;;;;4.35;0.90;;;18.40;81.30;;;;;;5043137;28;20028;-56
2023/08/28 08:32:34;;;;;;;3.17;1.17;;;18.40;83.00;;;;;;5038367;28;20094;-56
2023/08/28 08:35:00;;;;;;;2.20;0.70;;;19.00;82.50;;;;;;5037425;28;20643;-56
2023/08/28 08:37:28;;;;;;;3.35;0.50;;;19.20;77.50;;;;;;5022323;28;20045;-53
2023/08/28 08:39:54;;;;;;;4.05;0.88;;;19.10;77.70;;;;;;5039874;28;20040;-55
2023/08/28 08:42:21;;;;;;;3.55;0.75;;;18.80;78.00;;;;;;5044842;28;20359;-54
2023/08/28 08:44:47;;;;;;;3.08;0.70;;;18.60;77.90;;;;;;5051408;28;20032;-53
2023/08/28 08:47:20;;;;;;;4.00;0.90;;;18.30;78.20;;;;;;5044033;28;20065;-53
2023/08/28 08:49:57;;;;;;;2.53;0.70;;;18.60;78.60;;;;;;5025819;28;20053;-50
2023/08/28 08:52:25;;;;;;;2.10;0.60;;;19.20;77.90;;;;;;5034006;28;20033;-51
2023/08/28 08:55:00;;;;;;;3.25;0.50;;;19.80;77.80;;;;;;5035283;28;20037;-56
2023/08/28 08:57:47;;;;;;;2.40;0.60;;;19.80;73.70;;;;;;5014615;28;20073;-53
2023/08/28 09:00:17;;;;;;;4.43;0.93;;;20.00;74.00;;;;;;5032970;28;20037;-53
2023/08/28 09:02:48;;;;;;;3.08;0.60;;;20.00;73.20;;;;;;5047984;28;20040;-53
2023/08/28 09:05:15;;;;;;;3.05;0.80;;;20.50;72.90;;;;;;5026073;28;20041;-54
2023/08/28 09:07:44;;;;;;;2.83;0.80;;;20.50;69.90;;;;;;5045031;28;20150;-54
2023/08/28 09:10:10;;;;;;;1.92;0.60;;;20.20;69.50;;;;;;5052210;28;20090;-54
2023/08/28 09:12:37;;;;;;;4.38;0.90;;;20.30;70.40;;;;;;5047054;28;20108;-49
2023/08/28 09:15:04;;;;;;;1.73;0.40;;;20.40;70.20;;;;;;5041528;28;20037;-53
2023/08/28 09:17:31;;;;;;;4.35;0.90;;;20.70;71.40;;;;;;5029914;28;20029;-55
2023/08/28 09:20:13;;;;;;;2.28;0.60;;;20.60;70.40;;;;;;5032774;28;20060;-53
2023/08/28 09:22:57;;;;;;;3.97;0.70;;;20.70;69.70;;;;;;5035535;28;20037;-54
2023/08/28 09:25:26;;;;;;;2.53;1.20;;;20.80;70.60;;;;;;5051171;28;20044;-53
2023/08/28 09:27:54;;;;;;;6.35;0.95;;;20.90;68.00;;;;;;5026673;28;20037;-53
2023/08/28 09:30:30;;;;;;;6.65;0.68;;;20.90;67.90;;;;;;5026225;28;20429;-54
2023/08/28 09:33:09;;;;;;;5.40;1.00;;;21.10;68.90;;;;;;5049143;28;20434;-51
2023/08/28 09:35:40;;;;;;;1.88;0.40;;;21.20;68.20;;;;;;5027070;28;20029;-56
2023/08/28 09:38:07;;;;;;;1.83;0.52;;;20.70;68.60;;;;;;5031330;28;20053;-52
2023/08/28 09:40:43;;;;;;;3.25;0.73;;;20.20;70.90;;;;;;5030794;28;20033;-51
2023/08/28 09:43:15;;;;;;;3.13;0.70;;;19.50;71.60;;;;;;5044594;28;20021;-54
2023/08/28 09:45:43;;;;;;;3.00;0.57;;;19.50;72.20;;;;;;5047160;28;20035;-51
2023/08/28 09:48:12;;;;;;;4.15;0.57;;;19.90;72.60;;;;;;5015054;28;20039;-53
2023/08/28 09:50:44;;;;;;;0.73;0.43;;;20.40;70.30;;;;;;5045692;28;20025;-55
2023/08/28 09:53:28;;;;;;;1.40;0.63;;;20.80;72.00;;;;;;5027408;28;20438;-53
2023/08/28 09:55:54;;;;;;;2.58;0.70;;;21.10;69.20;;;;;;5024088;28;20049;-52
2023/08/28 09:58:29;;;;;;;1.70;0.55;;;21.20;65.70;;;;;;5029490;28;20036;-54
2023/08/28 10:00:56;;;;;;;1.33;0.60;;;21.10;65.00;;;;;;5033898;28;20083;-54
2023/08/28 10:03:35;;;;;;;2.78;0.50;;;21.50;66.50;;;;;;5053962;28;20191;-51
2023/08/28 10:06:04;;;;;;;3.60;0.63;;;21.40;65.50;;;;;;5042462;28;20041;-56
2023/08/28 10:08:35;;;;;;;2.13;0.53;;;20.90;64.90;;;;;;5030496;28;20029;-51
2023/08/28 10:11:03;;;;;;;3.03;0.80;;;20.70;67.30;;;;;;5039262;28;20033;-51
2023/08/28 10:13:34;;;;;;;1.58;0.50;;;20.90;67.90;;;;;;5046631;28;20029;-53
2023/08/28 10:16:21;;;;;;;2.47;0.45;;;21.20;64.40;;;;;;5032807;28;20081;-50
2023/08/28 10:18:59;;;;;;;2.60;0.75;;;21.20;64.00;;;;;;5047434;28;20020;-54
2023/08/28 10:21:26;;;;;;;1.80;0.50;;;21.20;64.70;;;;;;5028164;28;20182;-51
2023/08/28 10:23:57;;;;;;;2.28;0.60;;;21.40;66.10;;;;;;5038289;28;20040;-51
2023/08/28 10:26:28;;;;;;;1.60;0.50;;;21.40;66.70;;;;;;5023450;28;20043;-53
2023/08/28 10:29:05;;;;;;;1.42;0.47;;;21.70;65.00;;;;;;5039822;28;20048;-52
2023/08/28 10:31:36;;;;;;;2.33;0.70;;;21.50;65.00;;;;;;5046754;28;20036;-49
2023/08/28 10:34:07;;;;;;;3.83;0.90;;;21.40;64.60;;;;;;5026315;28;20048;-50
2023/08/28 10:36:35;;;;;;;4.13;1.00;;;21.40;63.20;;;;;;5033108;28;20029;-53
2023/08/28 10:39:04;;;;;;;2.63;0.50;;;20.90;64.90;;;;;;5046762;28;20370;-53
2023/08/28 10:41:33;;;;;;;3.47;0.70;;;20.60;66.80;;;;;;5036550;28;20033;-53
2023/08/28 10:44:06;;;;;;;1.85;0.73;;;20.90;68.00;;;;;;5027843;28;20168;-54
2023/08/28 10:46:33;;;;;;;2.13;0.50;;;21.10;65.50;;;;;;5039817;28;20030;-53
2023/08/28 10:49:05;;;;;;;3.67;0.73;;;21.20;64.90;;;;;;5016738;28;20040;-51
2023/08/28 10:51:33;;;;;;;5.40;1.42;;;21.40;66.90;;;;;;5040343;28;20148;-53
2023/08/28 10:54:11;;;;;;;2.95;0.65;;;21.50;64.00;;;;;;5041276;28;20450;-55
2023/08/28 10:56:38;;;;;;;2.67;0.65;;;21.80;64.40;;;;;;5048770;28;20627;-51
2023/08/28 11:00:02;;;;;;;1.27;0.40;;;21.90;64.60;;;;;;5025352;28;20037;-53
2023/08/28 11:03:07;;;;;;;3.72;0.70;;;22.20;62.40;;;;;;5041983;28;20051;-54
2023/08/28 11:05:40;;;;;;;2.30;0.80;;;22.40;64.20;;;;;;5051997;28;20031;-53
2023/08/28 11:08:14;;;;;;;1.80;0.60;;;22.20;61.10;;;;;;5017122;28;20041;-53
2023/08/28 11:10:49;;;;;;;1.75;0.60;;;22.00;62.80;;;;;;5045065;28;20436;-56
2023/08/28 11:13:27;;;;;;;1.80;0.40;;;21.70;64.00;;;;;;5032139;28;20764;-53
2023/08/28 11:16:04;;;;;;;2.88;0.50;;;21.40;63.00;;;;;;5054564;28;20033;-53
2023/08/28 11:18:30;;;;;;;2.72;0.68;;;21.00;65.00;;;;;;5044212;28;20025;-52
2023/08/28 11:21:16;;;;;;;3.17;0.70;;;20.90;65.60;;;;;;5025871;28;20029;-51
2023/08/28 11:23:51;;;;;;;2.55;0.60;;;21.10;68.10;;;;;;5035558;28;20096;-50
2023/08/28 11:26:26;;;;;;;3.65;0.70;;;21.30;65.50;;;;;;5019765;28;20147;-53
2023/08/28 11:28:54;;;;;;;2.13;0.57;;;21.40;66.60;;;;;;5041787;28;20032;-56
2023/08/28 11:31:28;;;;;;;6.70;1.08;;;21.40;65.10;;;;;;5040616;28;20135;-55
2023/08/28 11:33:56;;;;;;;5.60;1.25;;;21.20;66.70;;;;;;5040765;28;20091;-51
2023/08/28 11:36:23;;;;;;;2.20;0.73;;;21.00;66.20;;;;;;5044943;28;20029;-54
2023/08/28 11:38:56;;;;;;;4.45;1.60;;;20.90;68.40;;;;;;5045134;28;20036;-55
2023/08/28 11:41:25;;;;;;;5.18;1.50;;;20.50;67.40;;;;;;5020814;28;20052;-52
2023/08/28 11:43:55;;;;;;;3.85;1.15;;;20.20;69.00;;;;;;5025362;28;20472;-55
2023/08/28 11:46:26;;;;;;;2.97;0.63;;;20.50;70.00;;;;;;5038293;28;20025;-51
2023/08/28 11:48:52;;;;;;;3.30;1.00;;;20.70;68.90;;;;;;5055366;28;20026;-53
2023/08/28 11:51:26;;;;;;;3.78;0.88;;;20.50;69.20;;;;;;5049746;28;20044;-55
2023/08/28 11:53:56;;;;;;;4.45;0.70;;;20.40;69.40;;;;;;5042613;28;20033;-53
2023/08/28 11:56:23;;;;;;;2.55;0.77;;;20.30;70.40;;;;;;5031648;28;20048;-55
2023/08/28 11:58:52;;;;;;;4.65;1.65;;;20.00;69.90;;;;;;5047732;28;20527;-56
2023/08/28 12:01:20;;;;;;;4.43;0.80;;;20.20;70.60;;;;;;5024695;28;20036;-55
2023/08/28 12:03:55;;;;;;;3.90;1.13;;;20.30;69.60;;;;;;5046563;28;20044;-50
2023/08/28 12:06:29;;;;;;;3.17;0.93;;;20.60;71.30;;;;;;5051965;28;20037;-54
2023/08/28 12:08:56;;;;;;;2.78;0.70;;;20.70;71.00;;;;;;5045494;28;20033;-53
2023/08/28 12:11:30;;;;;;;2.42;0.70;;;20.60;68.40;;;;;;5032756;28;20041;-56
2023/08/28 12:14:12;;;;;;;1.90;0.65;;;20.70;69.50;;;;;;5045236;28;20481;-55
2023/08/28 12:16:44;;;;;;;2.10;0.88;;;20.90;69.00;;;;;;5004197;28;20041;-54
2023/08/28 12:19:19;;;;;;;1.88;0.70;;;21.10;67.00;;;;;;5046681;28;20118;-51
2023/08/28 12:21:46;;;;;;;4.88;1.13;;;20.80;66.50;;;;;;5043312;28;20018;-57
2023/08/28 12:24:13;;;;;;;4.35;1.08;;;20.40;68.50;;;;;;5025028;28;20040;-52
2023/08/28 12:26:43;;;;;;;1.35;0.60;;;20.50;69.10;;;;;;5037453;28;20028;-55
2023/08/28 12:29:12;;;;;;;2.58;0.77;;;20.70;68.70;;;;;;5048207;28;20036;-56
2023/08/28 12:31:40;;;;;;;2.75;0.70;;;20.80;68.10;;;;;;5025687;28;20423;-54
2023/08/28 12:34:11;;;;;;;2.97;0.95;;;20.90;69.50;;;;;;5039319;28;20040;-52
2023/08/28 12:36:50;;;;;;;3.50;1.30;;;21.00;68.10;;;;;;5043503;28;20029;-52
2023/08/28 12:39:19;;;;;;;2.25;0.70;;;20.70;67.10;;;;;;5048147;28;20167;-56
2023/08/28 12:41:54;;;;;;;3.47;0.85;;;20.20;67.30;;;;;;5027742;28;20647;-56
2023/08/28 12:44:22;;;;;;;5.35;1.17;;;20.10;69.60;;;;;;5024256;28;20061;-52
2023/08/28 12:47:00;;;;;;;1.85;0.63;;;20.20;70.50;;;;;;5040660;28;20414;-53
2023/08/28 12:49:27;;;;;;;2.13;1.08;;;20.40;69.30;;;;;;5041186;28;20353;-54
2023/08/28 12:51:54;;;;;;;6.25;0.90;;;20.40;70.00;;;;;;5056912;28;20033;-55
2023/08/28 12:54:21;;;;;;;1.55;0.80;;;20.50;70.10;;;;;;5043012;28;20501;-55
2023/08/28 12:56:52;;;;;;;2.33;0.70;;;20.50;69.10;;;;;;5011572;28;20049;-57
2023/08/28 12:59:25;;;;;;;2.10;0.88;;;20.40;68.40;;;;;;5054711;28;20044;-50
2023/08/28 13:01:53;;;;;;;2.13;0.88;;;20.30;68.80;;;;;;5049780;28;20041;-50
2023/08/28 13:04:19;;;;;;;2.67;0.93;;;20.30;69.60;;;;;;5047284;28;20029;-55